sensor_id;sensor_type;location;lat;lon;timestamp;P1;durP1;ratioP1;P2;durP2;ratioP2
8435;SDS011;4255;48.730;9.156;2023-02-13T00:01:02;44.90;;;27.00;;
8435;SDS011;4255;48.730;9.156;2023-02-13T00:03:28;42.00;;;23.07;;
8435;SDS011;4255;48.730;9.156;2023-02-13T00:05:54;46.50;;;24.50;;
8435;SDS011;4255;48.730;9.156;2023-02-13T00:08:19;43.93;;;24.10;;
8435;SDS011;4255;48.730;9.156;2023-02-13T00:10:45;45.33;;;23.73;;
8435;SDS011;4255;48.730;9.156;2023-02-13T00:13:12;41.72;;;22.90;;
8435;SDS011;4255;48.730;9.156;2023-02-13T00:15:37;45.77;;;23.40;;
8435;SDS011;4255;48.730;9.156;2023-02-13T00:18:03;44.37;;;24.33;;
8435;SDS011;4255;48.730;9.156;2023-02-13T00:20:29;41.15;;;24.45;;
8435;SDS011;4255;48.730;9.156;2023-02-13T00:22:55;43.43;;;25.00;;
8435;SDS011;4255;48.730;9.156;2023-02-13T00:25:22;42.17;;;23.92;;
8435;SDS011;4255;48.730;9.156;2023-02-13T00:27:49;41.87;;;24.87;;
8435;SDS011;4255;48.730;9.156;2023-02-13T00:30:16;52.30;;;24.95;;
8435;SDS011;4255;48.730;9.156;2023-02-13T00:32:41;48.90;;;26.13;;
8435;SDS011;4255;48.730;9.156;2023-02-13T00:35:07;58.50;;;25.90;;
8435;SDS011;4255;48.730;9.156;2023-02-13T00:37:33;54.23;;;29.30;;
8435;SDS011;4255;48.730;9.156;2023-02-13T00:39:58;55.20;;;25.90;;
8435;SDS011;4255;48.730;9.156;2023-02-13T00:42:24;54.93;;;28.37;;
8435;SDS011;4255;48.730;9.156;2023-02-13T00:44:50;55.67;;;28.45;;
8435;SDS011;4255;48.730;9.156;2023-02-13T00:47:17;53.65;;;28.55;;
8435;SDS011;4255;48.730;9.156;2023-02-13T00:49:43;58.33;;;29.17;;
8435;SDS011;4255;48.730;9.156;2023-02-13T00:52:09;56.60;;;28.67;;
8435;SDS011;4255;48.730;9.156;2023-02-13T00:54:34;63.07;;;28.60;;
8435;SDS011;4255;48.730;9.156;2023-02-13T00:57:00;60.10;;;28.53;;
8435;SDS011;4255;48.730;9.156;2023-02-13T00:59:26;58.85;;;28.48;;
8435;SDS011;4255;48.730;9.156;2023-02-13T01:01:52;55.87;;;28.90;;
8435;SDS011;4255;48.730;9.156;2023-02-13T01:04:17;44.80;;;26.63;;
8435;SDS011;4255;48.730;9.156;2023-02-13T01:06:43;53.17;;;28.10;;
8435;SDS011;4255;48.730;9.156;2023-02-13T01:09:08;51.73;;;27.70;;
8435;SDS011;4255;48.730;9.156;2023-02-13T01:11:35;58.90;;;27.73;;
8435;SDS011;4255;48.730;9.156;2023-02-13T01:14:00;54.53;;;27.07;;
8435;SDS011;4255;48.730;9.156;2023-02-13T01:16:26;52.23;;;28.53;;
8435;SDS011;4255;48.730;9.156;2023-02-13T01:18:52;47.23;;;26.70;;
8435;SDS011;4255;48.730;9.156;2023-02-13T01:21:19;47.93;;;27.30;;
8435;SDS011;4255;48.730;9.156;2023-02-13T01:23:45;55.72;;;25.88;;
8435;SDS011;4255;48.730;9.156;2023-02-13T01:26:17;49.23;;;26.90;;
8435;SDS011;4255;48.730;9.156;2023-02-13T01:28:47;60.20;;;29.13;;
8435;SDS011;4255;48.730;9.156;2023-02-13T01:31:15;63.17;;;28.20;;
8435;SDS011;4255;48.730;9.156;2023-02-13T01:33:41;57.03;;;27.07;;
8435;SDS011;4255;48.730;9.156;2023-02-13T01:36:07;54.87;;;27.17;;
8435;SDS011;4255;48.730;9.156;2023-02-13T01:38:34;51.17;;;26.98;;
8435;SDS011;4255;48.730;9.156;2023-02-13T01:41:00;58.60;;;25.70;;
8435;SDS011;4255;48.730;9.156;2023-02-13T01:43:42;65.00;;;29.90;;
8435;SDS011;4255;48.730;9.156;2023-02-13T01:46:09;57.25;;;27.35;;
8435;SDS011;4255;48.730;9.156;2023-02-13T01:48:36;57.42;;;30.80;;
8435;SDS011;4255;48.730;9.156;2023-02-13T01:51:03;54.00;;;27.03;;
8435;SDS011;4255;48.730;9.156;2023-02-13T01:53:39;54.70;;;28.17;;
8435;SDS011;4255;48.730;9.156;2023-02-13T01:56:11;60.78;;;30.50;;
8435;SDS011;4255;48.730;9.156;2023-02-13T01:58:54;73.68;;;31.88;;
8435;SDS011;4255;48.730;9.156;2023-02-13T02:01:22;62.03;;;31.83;;
8435;SDS011;4255;48.730;9.156;2023-02-13T02:03:56;76.70;;;33.63;;
8435;SDS011;4255;48.730;9.156;2023-02-13T02:06:45;81.10;;;38.08;;
8435;SDS011;4255;48.730;9.156;2023-02-13T02:09:16;85.55;;;39.78;;
8435;SDS011;4255;48.730;9.156;2023-02-13T02:14:28;81.43;;;36.63;;
8435;SDS011;4255;48.730;9.156;2023-02-13T02:16:54;75.70;;;32.90;;
8435;SDS011;4255;48.730;9.156;2023-02-13T02:21:59;64.35;;;29.10;;
8435;SDS011;4255;48.730;9.156;2023-02-13T02:24:57;60.38;;;30.20;;
8435;SDS011;4255;48.730;9.156;2023-02-13T02:35:54;59.33;;;29.15;;
8435;SDS011;4255;48.730;9.156;2023-02-13T02:44:24;64.97;;;30.08;;
8435;SDS011;4255;48.730;9.156;2023-02-13T02:50:45;71.47;;;30.77;;
8435;SDS011;4255;48.730;9.156;2023-02-13T02:55:38;67.78;;;29.45;;
8435;SDS011;4255;48.730;9.156;2023-02-13T03:01:26;58.88;;;28.60;;
8435;SDS011;4255;48.730;9.156;2023-02-13T03:07:17;58.63;;;26.73;;
8435;SDS011;4255;48.730;9.156;2023-02-13T03:09:47;57.22;;;28.23;;
8435;SDS011;4255;48.730;9.156;2023-02-13T03:12:36;57.83;;;27.75;;
8435;SDS011;4255;48.730;9.156;2023-02-13T03:15:31;59.20;;;28.00;;
8435;SDS011;4255;48.730;9.156;2023-02-13T03:17:58;56.00;;;27.77;;
8435;SDS011;4255;48.730;9.156;2023-02-13T03:26:49;63.80;;;31.42;;
8435;SDS011;4255;48.730;9.156;2023-02-13T03:29:48;61.72;;;32.28;;
8435;SDS011;4255;48.730;9.156;2023-02-13T03:35:33;57.45;;;29.85;;
8435;SDS011;4255;48.730;9.156;2023-02-13T03:38:55;65.47;;;31.75;;
8435;SDS011;4255;48.730;9.156;2023-02-13T03:41:44;61.80;;;28.75;;
8435;SDS011;4255;48.730;9.156;2023-02-13T03:44:27;58.80;;;29.08;;
8435;SDS011;4255;48.730;9.156;2023-02-13T03:47:01;65.07;;;30.70;;
8435;SDS011;4255;48.730;9.156;2023-02-13T03:52:21;51.30;;;25.98;;
8435;SDS011;4255;48.730;9.156;2023-02-13T03:54:57;53.97;;;27.83;;
8435;SDS011;4255;48.730;9.156;2023-02-13T03:57:47;55.00;;;27.65;;
8435;SDS011;4255;48.730;9.156;2023-02-13T04:00:38;58.75;;;29.77;;
8435;SDS011;4255;48.730;9.156;2023-02-13T04:03:21;53.85;;;27.63;;
8435;SDS011;4255;48.730;9.156;2023-02-13T04:06:10;57.28;;;27.50;;
8435;SDS011;4255;48.730;9.156;2023-02-13T04:08:39;64.40;;;27.85;;
8435;SDS011;4255;48.730;9.156;2023-02-13T04:11:09;59.75;;;27.35;;
8435;SDS011;4255;48.730;9.156;2023-02-13T04:16:30;58.90;;;27.80;;
8435;SDS011;4255;48.730;9.156;2023-02-13T04:19:03;59.17;;;28.30;;
8435;SDS011;4255;48.730;9.156;2023-02-13T04:21:32;65.93;;;29.02;;
8435;SDS011;4255;48.730;9.156;2023-02-13T04:23:59;67.50;;;28.77;;
8435;SDS011;4255;48.730;9.156;2023-02-13T04:26:25;68.33;;;29.73;;
8435;SDS011;4255;48.730;9.156;2023-02-13T04:28:57;57.25;;;28.42;;
8435;SDS011;4255;48.730;9.156;2023-02-13T04:31:23;63.37;;;28.90;;
8435;SDS011;4255;48.730;9.156;2023-02-13T04:33:48;66.00;;;29.43;;
8435;SDS011;4255;48.730;9.156;2023-02-13T04:36:14;61.43;;;27.63;;
8435;SDS011;4255;48.730;9.156;2023-02-13T04:38:39;55.43;;;26.70;;
8435;SDS011;4255;48.730;9.156;2023-02-13T04:41:05;61.30;;;27.93;;
8435;SDS011;4255;48.730;9.156;2023-02-13T04:43:33;64.57;;;28.95;;
8435;SDS011;4255;48.730;9.156;2023-02-13T04:45:59;61.50;;;29.07;;
8435;SDS011;4255;48.730;9.156;2023-02-13T04:48:25;67.87;;;30.07;;
8435;SDS011;4255;48.730;9.156;2023-02-13T04:50:50;61.27;;;28.80;;
8435;SDS011;4255;48.730;9.156;2023-02-13T04:53:16;70.40;;;30.90;;
8435;SDS011;4255;48.730;9.156;2023-02-13T04:55:42;70.27;;;30.10;;
8435;SDS011;4255;48.730;9.156;2023-02-13T04:58:07;63.13;;;28.03;;
8435;SDS011;4255;48.730;9.156;2023-02-13T05:00:36;68.10;;;29.33;;
8435;SDS011;4255;48.730;9.156;2023-02-13T05:03:05;68.27;;;30.00;;
8435;SDS011;4255;48.730;9.156;2023-02-13T05:05:32;69.72;;;28.13;;
8435;SDS011;4255;48.730;9.156;2023-02-13T05:07:58;65.63;;;30.70;;
8435;SDS011;4255;48.730;9.156;2023-02-13T05:10:25;65.60;;;28.00;;
8435;SDS011;4255;48.730;9.156;2023-02-13T05:12:51;57.05;;;26.90;;
8435;SDS011;4255;48.730;9.156;2023-02-13T05:15:16;71.77;;;28.17;;
8435;SDS011;4255;48.730;9.156;2023-02-13T05:17:42;61.90;;;27.40;;
8435;SDS011;4255;48.730;9.156;2023-02-13T05:20:09;75.13;;;28.02;;
8435;SDS011;4255;48.730;9.156;2023-02-13T05:22:35;71.32;;;28.77;;
8435;SDS011;4255;48.730;9.156;2023-02-13T05:25:20;64.53;;;28.33;;
8435;SDS011;4255;48.730;9.156;2023-02-13T05:27:48;65.60;;;28.67;;
8435;SDS011;4255;48.730;9.156;2023-02-13T05:30:14;66.28;;;29.95;;
8435;SDS011;4255;48.730;9.156;2023-02-13T05:32:39;65.50;;;30.90;;
8435;SDS011;4255;48.730;9.156;2023-02-13T05:35:07;78.85;;;31.40;;
8435;SDS011;4255;48.730;9.156;2023-02-13T05:37:33;77.00;;;34.60;;
8435;SDS011;4255;48.730;9.156;2023-02-13T05:39:58;74.23;;;35.30;;
8435;SDS011;4255;48.730;9.156;2023-02-13T05:42:24;84.00;;;33.40;;
8435;SDS011;4255;48.730;9.156;2023-02-13T05:44:49;79.07;;;35.67;;
8435;SDS011;4255;48.730;9.156;2023-02-13T05:47:15;74.10;;;33.37;;
8435;SDS011;4255;48.730;9.156;2023-02-13T05:49:41;78.17;;;34.23;;
8435;SDS011;4255;48.730;9.156;2023-02-13T05:52:06;84.37;;;35.87;;
8435;SDS011;4255;48.730;9.156;2023-02-13T05:54:32;71.83;;;34.70;;
8435;SDS011;4255;48.730;9.156;2023-02-13T05:56:57;79.33;;;34.00;;
8435;SDS011;4255;48.730;9.156;2023-02-13T05:59:23;69.50;;;34.53;;
8435;SDS011;4255;48.730;9.156;2023-02-13T06:01:48;75.30;;;32.67;;
8435;SDS011;4255;48.730;9.156;2023-02-13T06:04:14;60.70;;;29.80;;
8435;SDS011;4255;48.730;9.156;2023-02-13T06:06:39;77.23;;;31.77;;
8435;SDS011;4255;48.730;9.156;2023-02-13T06:09:05;59.07;;;28.93;;
8435;SDS011;4255;48.730;9.156;2023-02-13T06:11:31;59.77;;;29.80;;
8435;SDS011;4255;48.730;9.156;2023-02-13T06:13:56;75.47;;;32.53;;
8435;SDS011;4255;48.730;9.156;2023-02-13T06:16:22;66.20;;;34.87;;
8435;SDS011;4255;48.730;9.156;2023-02-13T06:18:47;77.60;;;38.87;;
8435;SDS011;4255;48.730;9.156;2023-02-13T06:21:13;78.83;;;34.53;;
8435;SDS011;4255;48.730;9.156;2023-02-13T06:23:38;78.23;;;37.13;;
8435;SDS011;4255;48.730;9.156;2023-02-13T06:26:05;76.20;;;37.83;;
8435;SDS011;4255;48.730;9.156;2023-02-13T06:28:32;71.15;;;36.95;;
8435;SDS011;4255;48.730;9.156;2023-02-13T06:30:58;73.97;;;35.33;;
8435;SDS011;4255;48.730;9.156;2023-02-13T06:33:24;76.50;;;36.80;;
8435;SDS011;4255;48.730;9.156;2023-02-13T06:35:50;72.67;;;37.27;;
8435;SDS011;4255;48.730;9.156;2023-02-13T06:38:16;70.63;;;38.00;;
8435;SDS011;4255;48.730;9.156;2023-02-13T06:40:45;62.85;;;29.55;;
8435;SDS011;4255;48.730;9.156;2023-02-13T06:43:12;75.10;;;36.25;;
8435;SDS011;4255;48.730;9.156;2023-02-13T06:45:38;80.10;;;38.03;;
8435;SDS011;4255;48.730;9.156;2023-02-13T06:48:04;84.95;;;37.40;;
8435;SDS011;4255;48.730;9.156;2023-02-13T06:50:30;64.33;;;31.53;;
8435;SDS011;4255;48.730;9.156;2023-02-13T06:52:56;70.10;;;34.73;;
8435;SDS011;4255;48.730;9.156;2023-02-13T06:55:22;76.38;;;33.30;;
8435;SDS011;4255;48.730;9.156;2023-02-13T06:57:47;86.93;;;40.80;;
8435;SDS011;4255;48.730;9.156;2023-02-13T07:00:14;96.53;;;42.97;;
8435;SDS011;4255;48.730;9.156;2023-02-13T07:02:41;82.40;;;39.20;;
8435;SDS011;4255;48.730;9.156;2023-02-13T07:05:12;86.53;;;38.05;;
8435;SDS011;4255;48.730;9.156;2023-02-13T07:07:39;90.80;;;38.30;;
8435;SDS011;4255;48.730;9.156;2023-02-13T07:10:06;85.70;;;38.60;;
8435;SDS011;4255;48.730;9.156;2023-02-13T07:12:36;90.22;;;38.78;;
8435;SDS011;4255;48.730;9.156;2023-02-13T07:15:02;84.67;;;38.33;;
8435;SDS011;4255;48.730;9.156;2023-02-13T07:17:28;83.03;;;34.08;;
8435;SDS011;4255;48.730;9.156;2023-02-13T07:19:55;66.28;;;31.13;;
8435;SDS011;4255;48.730;9.156;2023-02-13T07:22:21;63.25;;;31.10;;
8435;SDS011;4255;48.730;9.156;2023-02-13T07:24:47;61.87;;;30.77;;
8435;SDS011;4255;48.730;9.156;2023-02-13T07:27:12;74.50;;;32.17;;
8435;SDS011;4255;48.730;9.156;2023-02-13T07:29:38;69.77;;;32.47;;
8435;SDS011;4255;48.730;9.156;2023-02-13T07:32:04;73.80;;;33.47;;
8435;SDS011;4255;48.730;9.156;2023-02-13T07:34:31;72.32;;;32.90;;
8435;SDS011;4255;48.730;9.156;2023-02-13T07:36:57;70.65;;;32.08;;
8435;SDS011;4255;48.730;9.156;2023-02-13T07:39:22;64.20;;;29.43;;
8435;SDS011;4255;48.730;9.156;2023-02-13T07:41:48;67.37;;;31.73;;
8435;SDS011;4255;48.730;9.156;2023-02-13T07:44:14;68.90;;;29.73;;
8435;SDS011;4255;48.730;9.156;2023-02-13T07:46:40;60.33;;;28.93;;
8435;SDS011;4255;48.730;9.156;2023-02-13T07:49:05;55.17;;;29.47;;
8435;SDS011;4255;48.730;9.156;2023-02-13T07:51:31;58.37;;;29.13;;
8435;SDS011;4255;48.730;9.156;2023-02-13T07:53:56;62.90;;;29.53;;
8435;SDS011;4255;48.730;9.156;2023-02-13T07:56:22;55.83;;;27.73;;
8435;SDS011;4255;48.730;9.156;2023-02-13T07:58:47;47.97;;;26.10;;
8435;SDS011;4255;48.730;9.156;2023-02-13T08:01:14;50.70;;;25.20;;
8435;SDS011;4255;48.730;9.156;2023-02-13T08:03:40;55.50;;;27.90;;
8435;SDS011;4255;48.730;9.156;2023-02-13T08:06:07;55.33;;;28.73;;
8435;SDS011;4255;48.730;9.156;2023-02-13T08:08:33;43.80;;;25.08;;
8435;SDS011;4255;48.730;9.156;2023-02-13T08:11:02;53.97;;;27.85;;
8435;SDS011;4255;48.730;9.156;2023-02-13T08:13:49;48.13;;;25.35;;
8435;SDS011;4255;48.730;9.156;2023-02-13T08:16:15;51.67;;;25.40;;
8435;SDS011;4255;48.730;9.156;2023-02-13T08:18:41;47.00;;;25.03;;
8435;SDS011;4255;48.730;9.156;2023-02-13T08:21:06;42.67;;;24.00;;
8435;SDS011;4255;48.730;9.156;2023-02-13T08:23:32;48.60;;;25.37;;
8435;SDS011;4255;48.730;9.156;2023-02-13T08:25:58;49.43;;;25.10;;
8435;SDS011;4255;48.730;9.156;2023-02-13T08:28:25;49.95;;;27.10;;
8435;SDS011;4255;48.730;9.156;2023-02-13T08:30:50;47.73;;;25.40;;
8435;SDS011;4255;48.730;9.156;2023-02-13T08:33:16;47.40;;;26.20;;
8435;SDS011;4255;48.730;9.156;2023-02-13T08:35:41;39.30;;;23.30;;
8435;SDS011;4255;48.730;9.156;2023-02-13T08:38:07;43.83;;;23.57;;
8435;SDS011;4255;48.730;9.156;2023-02-13T08:40:33;39.58;;;19.48;;
8435;SDS011;4255;48.730;9.156;2023-02-13T08:42:59;36.27;;;19.93;;
8435;SDS011;4255;48.730;9.156;2023-02-13T08:45:26;37.45;;;20.48;;
8435;SDS011;4255;48.730;9.156;2023-02-13T08:47:58;32.33;;;19.60;;
8435;SDS011;4255;48.730;9.156;2023-02-13T08:50:25;34.22;;;19.50;;
8435;SDS011;4255;48.730;9.156;2023-02-13T08:52:52;32.00;;;19.33;;
8435;SDS011;4255;48.730;9.156;2023-02-13T08:55:18;31.30;;;18.75;;
8435;SDS011;4255;48.730;9.156;2023-02-13T08:57:44;32.92;;;17.40;;
8435;SDS011;4255;48.730;9.156;2023-02-13T09:00:10;31.23;;;17.35;;
8435;SDS011;4255;48.730;9.156;2023-02-13T09:02:36;32.05;;;17.90;;
8435;SDS011;4255;48.730;9.156;2023-02-13T09:05:02;30.60;;;16.23;;
8435;SDS011;4255;48.730;9.156;2023-02-13T09:07:27;28.83;;;18.17;;
8435;SDS011;4255;48.730;9.156;2023-02-13T09:09:53;29.80;;;16.53;;
8435;SDS011;4255;48.730;9.156;2023-02-13T09:12:18;24.37;;;15.60;;
8435;SDS011;4255;48.730;9.156;2023-02-13T09:14:44;24.47;;;16.27;;
8435;SDS011;4255;48.730;9.156;2023-02-13T09:17:11;27.08;;;14.48;;
8435;SDS011;4255;48.730;9.156;2023-02-13T09:19:38;24.42;;;15.00;;
8435;SDS011;4255;48.730;9.156;2023-02-13T09:22:03;22.63;;;15.90;;
8435;SDS011;4255;48.730;9.156;2023-02-13T09:24:29;23.90;;;15.13;;
8435;SDS011;4255;48.730;9.156;2023-02-13T09:26:55;21.40;;;14.40;;
8435;SDS011;4255;48.730;9.156;2023-02-13T09:29:20;21.90;;;14.20;;
8435;SDS011;4255;48.730;9.156;2023-02-13T09:31:46;30.30;;;15.50;;
8435;SDS011;4255;48.730;9.156;2023-02-13T09:34:12;23.57;;;14.57;;
8435;SDS011;4255;48.730;9.156;2023-02-13T09:36:38;22.73;;;14.38;;
8435;SDS011;4255;48.730;9.156;2023-02-13T09:39:03;22.13;;;15.07;;
8435;SDS011;4255;48.730;9.156;2023-02-13T09:41:36;30.97;;;18.97;;
8435;SDS011;4255;48.730;9.156;2023-02-13T09:47:00;22.85;;;14.20;;
8435;SDS011;4255;48.730;9.156;2023-02-13T09:49:50;21.63;;;14.02;;
8435;SDS011;4255;48.730;9.156;2023-02-13T09:52:18;22.27;;;13.95;;
8435;SDS011;4255;48.730;9.156;2023-02-13T09:54:44;17.83;;;12.60;;
8435;SDS011;4255;48.730;9.156;2023-02-13T10:08:48;22.95;;;12.50;;
8435;SDS011;4255;48.730;9.156;2023-02-13T10:16:35;19.10;;;12.80;;
8435;SDS011;4255;48.730;9.156;2023-02-13T10:21:58;20.88;;;13.07;;
8435;SDS011;4255;48.730;9.156;2023-02-13T10:27:05;18.48;;;12.85;;
8435;SDS011;4255;48.730;9.156;2023-02-13T10:29:57;19.02;;;12.38;;
8435;SDS011;4255;48.730;9.156;2023-02-13T10:32:40;20.50;;;13.02;;
8435;SDS011;4255;48.730;9.156;2023-02-13T10:35:34;17.92;;;12.20;;
8435;SDS011;4255;48.730;9.156;2023-02-13T10:37:59;21.45;;;13.95;;
8435;SDS011;4255;48.730;9.156;2023-02-13T10:40:38;21.17;;;12.60;;
8435;SDS011;4255;48.730;9.156;2023-02-13T10:43:08;15.18;;;11.75;;
8435;SDS011;4255;48.730;9.156;2023-02-13T10:51:12;19.63;;;12.82;;
8435;SDS011;4255;48.730;9.156;2023-02-13T11:05:01;22.08;;;11.20;;
8435;SDS011;4255;48.730;9.156;2023-02-13T11:07:35;14.35;;;11.35;;
8435;SDS011;4255;48.730;9.156;2023-02-13T11:10:02;18.10;;;11.90;;
8435;SDS011;4255;48.730;9.156;2023-02-13T11:12:37;14.75;;;11.48;;
8435;SDS011;4255;48.730;9.156;2023-02-13T11:15:05;17.37;;;11.87;;
8435;SDS011;4255;48.730;9.156;2023-02-13T11:17:43;13.73;;;9.68;;
8435;SDS011;4255;48.730;9.156;2023-02-13T11:25:41;15.95;;;10.93;;
8435;SDS011;4255;48.730;9.156;2023-02-13T11:28:22;16.35;;;10.25;;
8435;SDS011;4255;48.730;9.156;2023-02-13T11:30:47;13.63;;;9.40;;
8435;SDS011;4255;48.730;9.156;2023-02-13T11:35:42;12.35;;;9.15;;
8435;SDS011;4255;48.730;9.156;2023-02-13T11:40:40;13.50;;;9.27;;
8435;SDS011;4255;48.730;9.156;2023-02-13T11:43:30;12.30;;;9.20;;
8435;SDS011;4255;48.730;9.156;2023-02-13T11:46:03;14.10;;;9.13;;
8435;SDS011;4255;48.730;9.156;2023-02-13T11:48:38;12.20;;;9.48;;
8435;SDS011;4255;48.730;9.156;2023-02-13T11:51:05;10.55;;;8.25;;
8435;SDS011;4255;48.730;9.156;2023-02-13T11:53:31;9.83;;;8.50;;
8435;SDS011;4255;48.730;9.156;2023-02-13T11:56:11;14.00;;;8.18;;
8435;SDS011;4255;48.730;9.156;2023-02-13T11:58:38;8.65;;;7.25;;
8435;SDS011;4255;48.730;9.156;2023-02-13T12:03:56;11.23;;;7.40;;
8435;SDS011;4255;48.730;9.156;2023-02-13T12:06:26;9.27;;;7.15;;
8435;SDS011;4255;48.730;9.156;2023-02-13T12:08:52;11.07;;;9.00;;
8435;SDS011;4255;48.730;9.156;2023-02-13T12:13:44;12.73;;;8.93;;
8435;SDS011;4255;48.730;9.156;2023-02-13T12:16:15;13.35;;;9.52;;
8435;SDS011;4255;48.730;9.156;2023-02-13T12:19:04;14.82;;;10.30;;
8435;SDS011;4255;48.730;9.156;2023-02-13T12:24:45;10.65;;;8.65;;
8435;SDS011;4255;48.730;9.156;2023-02-13T12:43:04;12.13;;;9.45;;
8435;SDS011;4255;48.730;9.156;2023-02-13T12:51:04;15.10;;;10.87;;
8435;SDS011;4255;48.730;9.156;2023-02-13T12:53:45;19.30;;;11.20;;
8435;SDS011;4255;48.730;9.156;2023-02-13T12:56:29;16.95;;;11.63;;
8435;SDS011;4255;48.730;9.156;2023-02-13T13:04:47;19.20;;;12.45;;
8435;SDS011;4255;48.730;9.156;2023-02-13T13:13:20;14.13;;;12.02;;
8435;SDS011;4255;48.730;9.156;2023-02-13T13:29:11;18.77;;;13.63;;
8435;SDS011;4255;48.730;9.156;2023-02-13T13:32:12;18.90;;;12.73;;
8435;SDS011;4255;48.730;9.156;2023-02-13T13:34:41;15.73;;;11.85;;
8435;SDS011;4255;48.730;9.156;2023-02-13T13:42:41;18.95;;;13.57;;
8435;SDS011;4255;48.730;9.156;2023-02-13T13:50:40;16.63;;;11.85;;
8435;SDS011;4255;48.730;9.156;2023-02-13T14:09:10;15.90;;;11.98;;
8435;SDS011;4255;48.730;9.156;2023-02-13T14:12:34;23.08;;;12.75;;
8435;SDS011;4255;48.730;9.156;2023-02-13T14:15:00;19.85;;;13.98;;
8435;SDS011;4255;48.730;9.156;2023-02-13T14:22:47;23.23;;;15.65;;
8435;SDS011;4255;48.730;9.156;2023-02-13T14:25:20;18.20;;;13.05;;
8435;SDS011;4255;48.730;9.156;2023-02-13T14:27:55;20.92;;;13.85;;
8435;SDS011;4255;48.730;9.156;2023-02-13T14:30:30;20.85;;;14.18;;
8435;SDS011;4255;48.730;9.156;2023-02-13T14:32:59;16.75;;;13.60;;
8435;SDS011;4255;48.730;9.156;2023-02-13T14:35:30;19.25;;;14.23;;
8435;SDS011;4255;48.730;9.156;2023-02-13T14:37:58;20.58;;;14.20;;
8435;SDS011;4255;48.730;9.156;2023-02-13T14:40:27;18.65;;;12.70;;
8435;SDS011;4255;48.730;9.156;2023-02-13T14:43:27;16.58;;;12.07;;
8435;SDS011;4255;48.730;9.156;2023-02-13T14:46:02;20.10;;;13.90;;
8435;SDS011;4255;48.730;9.156;2023-02-13T14:48:51;14.73;;;11.57;;
8435;SDS011;4255;48.730;9.156;2023-02-13T14:51:47;18.58;;;12.77;;
8435;SDS011;4255;48.730;9.156;2023-02-13T14:57:07;20.20;;;13.13;;
8435;SDS011;4255;48.730;9.156;2023-02-13T14:59:42;20.83;;;13.40;;
8435;SDS011;4255;48.730;9.156;2023-02-13T15:02:17;19.42;;;12.52;;
8435;SDS011;4255;48.730;9.156;2023-02-13T15:04:47;16.30;;;12.13;;
8435;SDS011;4255;48.730;9.156;2023-02-13T15:07:28;22.92;;;12.52;;
8435;SDS011;4255;48.730;9.156;2023-02-13T15:09:59;19.48;;;13.35;;
8435;SDS011;4255;48.730;9.156;2023-02-13T15:14:57;23.10;;;13.43;;
8435;SDS011;4255;48.730;9.156;2023-02-13T15:17:30;15.85;;;11.98;;
8435;SDS011;4255;48.730;9.156;2023-02-13T15:22:37;18.08;;;12.35;;
8435;SDS011;4255;48.730;9.156;2023-02-13T15:25:06;19.58;;;13.18;;
8435;SDS011;4255;48.730;9.156;2023-02-13T15:27:35;17.02;;;11.95;;
8435;SDS011;4255;48.730;9.156;2023-02-13T15:30:26;18.70;;;11.05;;
8435;SDS011;4255;48.730;9.156;2023-02-13T15:33:16;18.08;;;11.70;;
8435;SDS011;4255;48.730;9.156;2023-02-13T15:35:43;17.00;;;11.85;;
8435;SDS011;4255;48.730;9.156;2023-02-13T15:38:42;18.15;;;12.23;;
8435;SDS011;4255;48.730;9.156;2023-02-13T15:41:03;17.83;;;11.32;;
8435;SDS011;4255;48.730;9.156;2023-02-13T15:43:51;16.98;;;11.27;;
8435;SDS011;4255;48.730;9.156;2023-02-13T15:46:26;16.65;;;11.43;;
8435;SDS011;4255;48.730;9.156;2023-02-13T15:49:03;18.10;;;11.85;;
8435;SDS011;4255;48.730;9.156;2023-02-13T15:51:31;16.17;;;11.75;;
8435;SDS011;4255;48.730;9.156;2023-02-13T15:53:59;13.77;;;10.40;;
8435;SDS011;4255;48.730;9.156;2023-02-13T15:56:27;17.63;;;10.77;;
8435;SDS011;4255;48.730;9.156;2023-02-13T15:58:53;17.77;;;11.23;;
8435;SDS011;4255;48.730;9.156;2023-02-13T16:01:20;14.65;;;10.95;;
8435;SDS011;4255;48.730;9.156;2023-02-13T16:03:58;17.05;;;11.77;;
8435;SDS011;4255;48.730;9.156;2023-02-13T16:06:27;18.17;;;11.35;;
8435;SDS011;4255;48.730;9.156;2023-02-13T16:08:55;22.20;;;11.73;;
8435;SDS011;4255;48.730;9.156;2023-02-13T16:13:57;16.23;;;11.63;;
8435;SDS011;4255;48.730;9.156;2023-02-13T16:24:46;14.35;;;10.65;;
8435;SDS011;4255;48.730;9.156;2023-02-13T16:27:15;18.38;;;11.73;;
8435;SDS011;4255;48.730;9.156;2023-02-13T16:29:47;17.85;;;11.45;;
8435;SDS011;4255;48.730;9.156;2023-02-13T16:32:29;21.02;;;12.40;;
8435;SDS011;4255;48.730;9.156;2023-02-13T16:35:13;19.65;;;12.50;;
8435;SDS011;4255;48.730;9.156;2023-02-13T16:37:52;15.10;;;10.43;;
8435;SDS011;4255;48.730;9.156;2023-02-13T16:46:12;15.65;;;10.98;;
8435;SDS011;4255;48.730;9.156;2023-02-13T16:48:44;18.45;;;11.27;;
8435;SDS011;4255;48.730;9.156;2023-02-13T16:51:32;20.73;;;12.98;;
8435;SDS011;4255;48.730;9.156;2023-02-13T16:53:59;18.30;;;12.43;;
8435;SDS011;4255;48.730;9.156;2023-02-13T16:56:28;17.45;;;12.02;;
8435;SDS011;4255;48.730;9.156;2023-02-13T17:02:02;18.85;;;11.75;;
8435;SDS011;4255;48.730;9.156;2023-02-13T17:04:43;22.80;;;12.70;;
8435;SDS011;4255;48.730;9.156;2023-02-13T17:07:14;24.65;;;13.38;;
8435;SDS011;4255;48.730;9.156;2023-02-13T17:09:41;25.23;;;14.38;;
8435;SDS011;4255;48.730;9.156;2023-02-13T17:12:11;29.60;;;14.40;;
8435;SDS011;4255;48.730;9.156;2023-02-13T17:14:39;25.52;;;14.35;;
8435;SDS011;4255;48.730;9.156;2023-02-13T17:17:10;19.67;;;12.15;;
8435;SDS011;4255;48.730;9.156;2023-02-13T17:19:36;18.10;;;12.35;;
8435;SDS011;4255;48.730;9.156;2023-02-13T17:22:02;23.77;;;14.60;;
8435;SDS011;4255;48.730;9.156;2023-02-13T17:24:28;22.02;;;13.75;;
8435;SDS011;4255;48.730;9.156;2023-02-13T17:26:54;23.70;;;14.07;;
8435;SDS011;4255;48.730;9.156;2023-02-13T17:29:19;27.57;;;15.07;;
8435;SDS011;4255;48.730;9.156;2023-02-13T17:31:45;22.33;;;13.70;;
8435;SDS011;4255;48.730;9.156;2023-02-13T17:34:10;24.03;;;13.53;;
8435;SDS011;4255;48.730;9.156;2023-02-13T17:36:36;20.90;;;13.90;;
8435;SDS011;4255;48.730;9.156;2023-02-13T17:39:02;29.03;;;15.33;;
8435;SDS011;4255;48.730;9.156;2023-02-13T17:41:27;26.17;;;13.60;;
8435;SDS011;4255;48.730;9.156;2023-02-13T17:43:53;26.70;;;14.52;;
8435;SDS011;4255;48.730;9.156;2023-02-13T17:46:19;30.13;;;15.07;;
8435;SDS011;4255;48.730;9.156;2023-02-13T17:48:46;28.88;;;16.20;;
8435;SDS011;4255;48.730;9.156;2023-02-13T17:51:12;28.33;;;16.00;;
8435;SDS011;4255;48.730;9.156;2023-02-13T17:53:38;28.88;;;16.92;;
8435;SDS011;4255;48.730;9.156;2023-02-13T17:56:04;25.57;;;14.20;;
8435;SDS011;4255;48.730;9.156;2023-02-13T17:58:29;27.07;;;14.80;;
8435;SDS011;4255;48.730;9.156;2023-02-13T18:00:55;24.17;;;14.30;;
8435;SDS011;4255;48.730;9.156;2023-02-13T18:03:21;30.47;;;14.57;;
8435;SDS011;4255;48.730;9.156;2023-02-13T18:05:49;26.03;;;15.10;;
8435;SDS011;4255;48.730;9.156;2023-02-13T18:08:17;36.00;;;15.93;;
8435;SDS011;4255;48.730;9.156;2023-02-13T18:10:44;24.48;;;15.32;;
8435;SDS011;4255;48.730;9.156;2023-02-13T18:13:09;25.80;;;15.07;;
8435;SDS011;4255;48.730;9.156;2023-02-13T18:15:39;27.83;;;14.77;;
8435;SDS011;4255;48.730;9.156;2023-02-13T18:18:07;26.55;;;14.70;;
8435;SDS011;4255;48.730;9.156;2023-02-13T18:20:34;29.13;;;15.35;;
8435;SDS011;4255;48.730;9.156;2023-02-13T18:23:00;32.97;;;18.08;;
8435;SDS011;4255;48.730;9.156;2023-02-13T18:25:26;32.20;;;16.80;;
8435;SDS011;4255;48.730;9.156;2023-02-13T18:27:53;27.60;;;17.08;;
8435;SDS011;4255;48.730;9.156;2023-02-13T18:30:19;35.63;;;17.05;;
8435;SDS011;4255;48.730;9.156;2023-02-13T18:32:49;31.58;;;16.83;;
8435;SDS011;4255;48.730;9.156;2023-02-13T18:35:16;31.42;;;18.33;;
8435;SDS011;4255;48.730;9.156;2023-02-13T18:37:43;28.38;;;16.80;;
8435;SDS011;4255;48.730;9.156;2023-02-13T18:40:09;27.37;;;16.17;;